createdAt,value
2017-07-28T00:01:39.168Z,78.50
2017-07-28T00:04:17.088Z,78.80
2017-07-28T00:06:58.247Z,79.50
2017-07-28T00:09:53.343Z,80.20
2017-07-28T00:12:57.884Z,80.30
2017-07-28T00:15:46.798Z,80.20
2017-07-28T00:18:52.895Z,79.30
2017-07-28T00:30:58.412Z,77.80
2017-07-28T00:33:49.073Z,76.50
2017-07-28T00:36:46.161Z,76.00
2017-07-28T00:39:22.468Z,75.80
2017-07-28T00:42:01.466Z,76.20
2017-07-28T00:44:39.248Z,75.80
2017-07-28T00:47:26.263Z,76.10
2017-07-28T00:50:09.592Z,75.60
2017-07-28T00:52:47.392Z,75.50
2017-07-28T00:58:21.640Z,75.20
2017-07-28T01:00:59.996Z,75.10
2017-07-28T01:03:43.061Z,75.20
2017-07-28T01:06:32.016Z,75.30
2017-07-28T01:09:16.118Z,75.40
2017-07-28T01:11:55.197Z,75.50
2017-07-28T01:14:38.173Z,75.90
2017-07-28T01:17:14.086Z,75.90
2017-07-28T01:19:48.979Z,75.80
2017-07-28T01:22:23.883Z,75.70
2017-07-28T01:24:58.771Z,75.60
2017-07-28T01:27:33.543Z,75.80
2017-07-28T01:30:08.436Z,75.50
2017-07-28T01:32:43.329Z,75.60
2017-07-28T01:35:29.712Z,75.90
2017-07-28T01:38:04.631Z,76.00
2017-07-28T01:40:39.526Z,76.00
2017-07-28T01:43:14.323Z,76.10
2017-07-28T01:45:49.240Z,76.20
2017-07-28T01:48:24.019Z,76.20
2017-07-28T01:50:58.903Z,76.20
2017-07-28T01:53:33.688Z,76.20
2017-07-28T01:56:08.584Z,76.10
2017-07-28T01:58:43.506Z,76.00
2017-07-28T02:01:18.406Z,76.30
2017-07-28T02:03:53.316Z,76.40
2017-07-28T02:06:28.218Z,76.20
2017-07-28T02:09:04.095Z,76.00
2017-07-28T02:11:38.998Z,75.70
2017-07-28T02:14:13.892Z,75.40
2017-07-28T02:16:48.655Z,75.30
2017-07-28T02:19:23.428Z,74.70
2017-07-28T02:21:58.319Z,74.50
2017-07-28T02:24:33.099Z,74.50
2017-07-28T02:27:07.972Z,74.30
2017-07-28T02:29:42.898Z,74.10
2017-07-28T02:32:17.782Z,73.90
2017-07-28T02:34:52.703Z,74.00
2017-07-28T02:37:27.599Z,73.90
2017-07-28T02:40:02.383Z,73.80
2017-07-28T02:42:37.255Z,73.90
2017-07-28T02:45:12.195Z,73.70
2017-07-28T02:47:47.062Z,73.60
2017-07-28T02:50:21.891Z,73.60
2017-07-28T02:52:56.675Z,73.60
2017-07-28T02:55:31.438Z,73.30
2017-07-28T02:58:06.201Z,73.90
2017-07-28T03:00:41.122Z,73.80
2017-07-28T03:03:15.999Z,73.60
2017-07-28T03:05:50.823Z,73.20
2017-07-28T03:08:25.731Z,73.50
2017-07-28T03:11:00.535Z,73.70
2017-07-28T03:13:35.432Z,74.10
2017-07-28T03:16:10.239Z,74.40
2017-07-28T03:18:45.130Z,74.40
2017-07-28T03:21:19.912Z,74.30
2017-07-28T03:23:54.803Z,74.00
2017-07-28T03:26:30.554Z,73.90
2017-07-28T03:29:05.435Z,73.90
2017-07-28T03:31:40.338Z,73.90
2017-07-28T03:34:15.256Z,74.00
2017-07-28T03:36:50.184Z,73.90
2017-07-28T03:39:25.060Z,73.60
2017-07-28T03:41:59.994Z,73.50
2017-07-28T03:44:34.748Z,73.60
2017-07-28T03:47:15.267Z,73.40
2017-07-28T03:49:50.026Z,73.90
2017-07-28T03:52:24.952Z,74.30
2017-07-28T03:54:59.719Z,74.30
2017-07-28T03:57:34.492Z,74.30
2017-07-28T04:00:09.256Z,74.20
2017-07-28T04:02:44.163Z,74.30
2017-07-28T04:05:18.919Z,74.20
2017-07-28T04:07:53.835Z,74.10
2017-07-28T04:10:28.723Z,74.40
2017-07-28T04:13:03.679Z,74.70
2017-07-28T04:15:38.560Z,74.70
2017-07-28T04:18:13.456Z,74.90
2017-07-28T04:20:48.367Z,75.00
2017-07-28T04:23:23.132Z,74.80
2017-07-28T04:25:58.009Z,74.60
2017-07-28T04:28:32.791Z,74.60
2017-07-28T04:31:07.670Z,74.30
2017-07-28T04:33:42.586Z,74.20
2017-07-28T04:36:17.475Z,74.00
2017-07-28T04:38:52.354Z,73.90
2017-07-28T04:41:27.247Z,73.70
2017-07-28T04:44:02.031Z,73.80
2017-07-28T04:46:36.910Z,73.60
2017-07-28T04:49:11.670Z,73.40
2017-07-28T04:51:46.567Z,73.50
2017-07-28T04:54:21.352Z,73.70
2017-07-28T04:57:07.717Z,73.60
2017-07-28T04:59:42.458Z,73.60
2017-07-28T05:02:17.359Z,73.60
2017-07-28T05:04:52.306Z,73.50
2017-07-28T05:07:27.080Z,73.20
2017-07-28T05:10:06.603Z,72.90
2017-07-28T05:12:41.493Z,72.80
2017-07-28T05:15:16.267Z,72.60
2017-07-28T05:17:51.155Z,72.30
2017-07-28T05:20:25.931Z,71.90
2017-07-28T05:23:00.679Z,71.30
2017-07-28T05:25:35.615Z,71.00
2017-07-28T05:28:13.361Z,70.80
2017-07-28T05:30:48.249Z,70.50
2017-07-28T05:33:23.126Z,70.60
2017-07-28T05:35:57.936Z,71.20
2017-07-28T05:38:32.694Z,70.90
2017-07-28T05:41:07.475Z,71.20
2017-07-28T05:43:43.136Z,70.70
2017-07-28T05:46:18.670Z,70.60
2017-07-28T05:48:53.593Z,69.60
2017-07-28T05:51:28.557Z,70.30
2017-07-28T05:54:03.335Z,70.00
2017-07-28T05:56:38.177Z,69.50
2017-07-28T05:59:13.128Z,68.90
2017-07-28T06:01:48.134Z,68.40
2017-07-28T06:04:23.075Z,68.70
2017-07-28T06:06:58.100Z,68.90
2017-07-28T06:09:33.009Z,67.80
2017-07-28T06:12:07.969Z,66.00
2017-07-28T06:14:43.201Z,66.70
2017-07-28T06:17:18.485Z,65.60
2017-07-28T06:19:54.522Z,65.40
2017-07-28T06:22:35.622Z,64.80
2017-07-28T06:25:12.075Z,64.30
2017-07-28T06:27:47.015Z,64.20
2017-07-28T06:30:21.794Z,65.50
2017-07-28T06:32:56.810Z,64.50
2017-07-28T06:35:31.685Z,66.40
2017-07-28T06:38:06.605Z,65.80
2017-07-28T06:40:41.527Z,65.00
2017-07-28T06:43:16.460Z,65.50
2017-07-28T06:45:51.232Z,64.50
2017-07-28T06:48:26.291Z,63.00
2017-07-28T06:51:01.190Z,64.10
2017-07-28T06:53:36.098Z,64.90
2017-07-28T06:56:11.038Z,65.20
2017-07-28T06:58:45.989Z,61.20
2017-07-28T07:01:20.905Z,62.50
2017-07-28T07:03:55.744Z,62.70
2017-07-28T07:06:30.569Z,61.40
2017-07-28T07:09:05.364Z,61.40
2017-07-28T07:11:40.143Z,62.10
2017-07-28T07:14:15.065Z,61.20
2017-07-28T07:16:54.982Z,60.30
2017-07-28T07:19:29.919Z,59.80
2017-07-28T07:22:04.853Z,59.60
2017-07-28T07:24:39.764Z,60.70
2017-07-28T07:27:14.673Z,58.60
2017-07-28T07:29:49.467Z,58.00
2017-07-28T07:32:24.379Z,59.50
2017-07-28T07:34:59.314Z,58.50
2017-07-28T07:37:34.228Z,57.80
2017-07-28T07:40:09.163Z,56.60
2017-07-28T07:42:44.057Z,56.30
2017-07-28T07:45:18.962Z,56.00
2017-07-28T07:47:53.876Z,54.90
2017-07-28T07:50:28.660Z,54.10
2017-07-28T07:53:03.416Z,53.40
2017-07-28T07:55:38.335Z,52.20
2017-07-28T07:58:13.099Z,51.30
2017-07-28T08:00:48.028Z,51.50
2017-07-28T08:03:22.926Z,51.80
2017-07-28T08:05:57.815Z,52.40
2017-07-28T08:08:32.695Z,52.80
2017-07-28T08:11:07.635Z,52.00
2017-07-28T08:13:42.568Z,51.20
2017-07-28T08:16:17.351Z,53.00
2017-07-28T08:18:52.272Z,52.80
2017-07-28T08:21:27.118Z,52.30
2017-07-28T08:24:02.016Z,52.60
2017-07-28T08:26:36.792Z,52.70
2017-07-28T08:29:11.557Z,53.10
2017-07-28T08:31:46.483Z,51.40
2017-07-28T08:34:21.251Z,50.60
2017-07-28T08:36:56.163Z,51.00
2017-07-28T08:39:31.041Z,50.70
2017-07-28T08:42:06.053Z,50.80
2017-07-28T08:44:41.080Z,49.30
2017-07-28T08:47:15.999Z,48.40
2017-07-28T08:49:51.184Z,47.30
2017-07-28T08:52:26.088Z,47.30
2017-07-28T08:55:00.852Z,47.40
2017-07-28T08:57:35.755Z,45.70
2017-07-28T09:00:10.516Z,45.80
2017-07-28T09:02:45.385Z,46.60
2017-07-28T09:05:20.225Z,46.00
2017-07-28T09:07:55.034Z,46.60
2017-07-28T09:10:29.862Z,46.50
2017-07-28T09:13:04.764Z,46.80
2017-07-28T09:15:39.524Z,45.50
2017-07-28T09:18:14.310Z,45.20
2017-07-28T09:20:49.225Z,44.20
2017-07-28T09:23:24.039Z,44.70
2017-07-28T09:25:58.950Z,46.90
2017-07-28T09:28:33.937Z,46.00
2017-07-28T09:31:08.682Z,46.30
2017-07-28T09:33:43.591Z,45.10
2017-07-28T09:36:18.357Z,44.10
2017-07-28T09:38:53.204Z,43.40
2017-07-28T09:41:28.083Z,44.30
2017-07-28T09:44:02.916Z,44.00
2017-07-28T09:46:37.771Z,44.70
2017-07-28T09:49:12.564Z,45.90
2017-07-28T09:51:47.465Z,46.40
2017-07-28T09:54:22.372Z,45.90
2017-07-28T09:56:57.264Z,45.80
2017-07-28T09:59:32.121Z,44.30
2017-07-28T10:02:06.892Z,44.40
2017-07-28T10:04:41.690Z,42.90
2017-07-28T10:07:16.619Z,44.30
2017-07-28T10:09:51.555Z,42.70
2017-07-28T10:12:26.451Z,41.50
2017-07-28T10:15:03.125Z,41.50
2017-07-28T10:17:39.159Z,41.70
2017-07-28T10:20:14.026Z,43.80
2017-07-28T10:22:48.787Z,39.80
2017-07-28T10:25:23.693Z,38.50
2017-07-28T10:27:58.592Z,39.50
2017-07-28T10:30:33.390Z,41.10
2017-07-28T10:33:08.275Z,41.00
2017-07-28T10:35:43.059Z,42.90
2017-07-28T10:38:17.939Z,40.90
2017-07-28T10:40:52.847Z,41.10
2017-07-28T10:43:27.770Z,40.80
2017-07-28T10:46:02.555Z,40.10
2017-07-28T10:48:37.330Z,40.50
2017-07-28T10:51:12.263Z,39.20
2017-07-28T10:53:47.029Z,38.30
2017-07-28T10:56:21.835Z,39.20
2017-07-28T10:58:56.739Z,38.90
2017-07-28T11:01:31.698Z,40.60
2017-07-28T11:04:06.591Z,40.80
2017-07-28T11:06:41.375Z,38.00
2017-07-28T11:09:16.255Z,39.00
2017-07-28T11:11:51.039Z,39.60
2017-07-28T11:14:25.819Z,40.20
2017-07-28T11:17:00.606Z,38.90
2017-07-28T11:19:35.504Z,37.80
2017-07-28T11:22:10.419Z,38.90
2017-07-28T11:24:45.331Z,39.50
2017-07-28T11:27:20.243Z,38.90
2017-07-28T11:29:55.131Z,38.40
2017-07-28T11:32:29.923Z,39.20
2017-07-28T11:35:04.812Z,38.70
2017-07-28T11:37:39.714Z,38.30
2017-07-28T11:40:14.607Z,39.50
2017-07-28T11:42:49.518Z,36.80
2017-07-28T11:45:24.289Z,36.90
2017-07-28T11:47:59.071Z,38.00
2017-07-28T11:50:33.952Z,35.40
2017-07-28T11:53:08.874Z,36.00
2017-07-28T11:55:43.764Z,34.80
2017-07-28T11:58:18.564Z,34.50
2017-07-28T12:00:53.456Z,33.70
2017-07-28T12:03:28.269Z,31.60
2017-07-28T12:06:03.170Z,31.30
2017-07-28T12:08:37.964Z,32.60
2017-07-28T12:11:12.758Z,32.90
2017-07-28T12:13:47.565Z,32.30
2017-07-28T12:16:22.388Z,33.30
2017-07-28T12:18:57.169Z,34.00
2017-07-28T12:21:32.046Z,32.30
2017-07-28T12:24:06.962Z,32.90
2017-07-28T12:26:41.741Z,31.80
2017-07-28T12:29:16.652Z,29.60
2017-07-28T12:31:51.431Z,30.50
2017-07-28T12:34:26.219Z,30.70
2017-07-28T12:37:01.107Z,31.90
2017-07-28T12:39:36.014Z,32.10
2017-07-28T12:42:10.794Z,32.40
2017-07-28T12:44:45.722Z,32.00
2017-07-28T12:47:20.484Z,31.90
2017-07-28T12:49:55.292Z,33.70
2017-07-28T12:52:30.199Z,34.30
2017-07-28T12:55:04.980Z,34.70
2017-07-28T12:57:39.941Z,33.60
2017-07-28T13:00:14.859Z,34.20
2017-07-28T13:02:49.744Z,33.50
2017-07-28T13:05:25.004Z,33.10
2017-07-28T13:07:59.955Z,33.30
2017-07-28T13:10:34.734Z,33.90
2017-07-28T13:13:09.775Z,34.70
2017-07-28T13:15:44.776Z,34.90
2017-07-28T13:18:19.667Z,35.80
2017-07-28T13:20:54.576Z,35.30
2017-07-28T13:23:29.488Z,35.60
2017-07-28T13:26:04.320Z,35.40
2017-07-28T13:28:39.247Z,35.00
2017-07-28T13:31:14.077Z,35.60
2017-07-28T13:33:48.914Z,37.20
2017-07-28T13:36:24.266Z,37.40
2017-07-28T13:38:59.031Z,37.30
2017-07-28T13:41:33.988Z,36.40
2017-07-28T13:44:08.735Z,34.90
2017-07-28T13:46:49.039Z,32.50
2017-07-28T13:49:23.816Z,32.80
2017-07-28T13:51:58.593Z,32.40
2017-07-28T13:54:37.217Z,32.50
2017-07-28T13:57:12.017Z,33.00
2017-07-28T13:59:47.754Z,32.30
2017-07-28T14:02:26.227Z,33.70
2017-07-28T14:05:02.115Z,35.70
2017-07-28T14:07:37.015Z,35.50
2017-07-28T14:10:11.976Z,34.90
2017-07-28T14:12:52.832Z,31.50
2017-07-28T14:15:27.823Z,30.40
2017-07-28T14:18:13.403Z,30.70
2017-07-28T14:20:49.322Z,31.90
2017-07-28T14:23:24.243Z,32.60
2017-07-28T14:25:59.200Z,31.10
2017-07-28T14:28:34.088Z,29.10
2017-07-28T14:31:08.839Z,27.70
2017-07-28T14:33:43.684Z,27.90
2017-07-28T14:36:19.767Z,26.50
2017-07-28T14:38:54.567Z,26.00
2017-07-28T14:41:29.447Z,28.20
2017-07-28T14:44:04.923Z,29.40
2017-07-28T14:46:40.340Z,29.40
2017-07-28T14:49:15.126Z,29.50
2017-07-28T14:51:50.159Z,31.20
2017-07-28T14:54:25.084Z,32.60
2017-07-28T14:57:02.828Z,32.70
2017-07-28T14:59:37.785Z,33.10
2017-07-28T15:02:12.518Z,32.30
2017-07-28T15:04:47.922Z,30.80
2017-07-28T15:07:24.210Z,30.30
2017-07-28T15:09:59.609Z,31.00
2017-07-28T15:12:40.282Z,30.30
2017-07-28T15:15:15.158Z,32.70
2017-07-28T15:17:50.151Z,33.10
2017-07-28T15:20:25.377Z,33.50
2017-07-28T15:23:00.331Z,33.10
2017-07-28T15:25:35.692Z,34.50
2017-07-28T15:28:10.599Z,34.90
2017-07-28T15:30:45.380Z,34.90
2017-07-28T15:33:20.267Z,36.00
2017-07-28T15:35:55.063Z,37.10
2017-07-28T15:38:29.963Z,36.60
2017-07-28T15:41:04.897Z,35.40
2017-07-28T15:43:43.875Z,33.90
2017-07-28T15:46:18.932Z,32.30
2017-07-28T15:48:53.995Z,30.20
2017-07-28T15:51:29.359Z,31.30
2017-07-28T15:54:04.243Z,32.40
2017-07-28T15:56:39.143Z,34.40
2017-07-28T15:59:13.922Z,36.10
2017-07-28T16:01:49.034Z,34.80
2017-07-28T16:04:24.278Z,33.90
2017-07-28T16:06:59.229Z,32.90
2017-07-28T16:09:40.970Z,34.30
2017-07-28T16:12:16.099Z,33.10
2017-07-28T16:14:51.987Z,33.30
2017-07-28T16:17:26.929Z,31.30
2017-07-28T16:20:02.834Z,31.80
2017-07-28T16:22:37.829Z,32.60
2017-07-28T16:25:12.620Z,31.50
2017-07-28T16:27:47.395Z,32.10
2017-07-28T16:30:22.147Z,32.80
2017-07-28T16:32:57.082Z,31.60
2017-07-28T16:35:32.038Z,31.10
2017-07-28T16:38:08.912Z,30.50
2017-07-28T16:40:43.863Z,29.30
2017-07-28T16:43:18.645Z,32.40
2017-07-28T16:45:53.581Z,33.30
2017-07-28T16:48:28.509Z,33.30
2017-07-28T16:51:03.414Z,35.20
2017-07-28T16:53:38.229Z,35.60
2017-07-28T16:56:13.170Z,35.90
2017-07-28T16:58:49.481Z,38.20
2017-07-28T17:01:24.442Z,38.10
2017-07-28T17:03:59.366Z,37.00
2017-07-28T17:06:40.377Z,37.20
2017-07-28T17:09:20.331Z,35.60
2017-07-28T17:12:00.512Z,37.10
2017-07-28T17:14:36.339Z,37.50
2017-07-28T17:17:15.776Z,38.40
2017-07-28T17:19:50.706Z,38.10
2017-07-28T17:22:30.998Z,39.20
2017-07-28T17:25:05.907Z,40.40
2017-07-28T17:27:40.866Z,40.80
2017-07-28T17:30:15.797Z,40.20
2017-07-28T17:32:50.743Z,39.60
2017-07-28T17:35:25.664Z,41.50
2017-07-28T17:38:03.668Z,44.60
2017-07-28T17:40:38.576Z,45.70
2017-07-28T17:43:13.547Z,47.60
2017-07-28T17:45:48.353Z,47.60
2017-07-28T17:48:23.306Z,47.30
2017-07-28T17:50:58.338Z,48.40
2017-07-28T17:53:33.304Z,47.90
2017-07-28T17:56:16.853Z,48.90
2017-07-28T17:58:51.884Z,49.50
2017-07-28T18:04:53.023Z,51.40
2017-07-28T18:10:33.467Z,52.80
2017-07-28T18:13:09.383Z,52.80
2017-07-28T19:05:39.088Z,60.20
2017-07-28T19:08:18.289Z,61.20
2017-07-28T19:13:47.177Z,62.20
2017-07-28T19:16:22.139Z,62.00
2017-07-28T19:18:56.986Z,62.30
2017-07-28T19:21:31.950Z,63.00
2017-07-28T19:24:06.782Z,63.20
2017-07-28T19:26:41.800Z,63.40
2017-07-28T19:29:16.620Z,63.20
2017-07-28T19:31:51.504Z,63.00
2017-07-28T19:34:26.409Z,63.10
2017-07-28T19:37:01.294Z,63.60
2017-07-28T19:39:36.156Z,64.60
2017-07-28T19:42:11.026Z,65.20
2017-07-28T19:44:45.911Z,65.30
2017-07-28T19:47:20.806Z,65.00
2017-07-28T19:49:55.661Z,64.60
2017-07-28T19:52:30.640Z,64.50
2017-07-28T19:55:05.504Z,64.10
2017-07-28T19:57:40.351Z,64.30
2017-07-28T20:00:15.336Z,64.60
2017-07-28T20:02:50.185Z,64.70
2017-07-28T20:05:25.207Z,64.70
2017-07-28T20:08:00.097Z,65.00
2017-07-28T20:10:35.132Z,65.30
2017-07-28T20:13:09.974Z,65.50
2017-07-28T20:15:44.754Z,65.60
2017-07-28T20:18:19.528Z,65.50
2017-07-28T20:20:54.600Z,65.40
2017-07-28T20:23:29.704Z,65.40
2017-07-28T20:26:05.440Z,65.60
2017-07-28T20:28:40.288Z,65.50
2017-07-28T20:31:15.110Z,65.50
2017-07-28T20:33:50.015Z,65.40
2017-07-28T20:36:24.943Z,65.50
2017-07-28T20:39:00.772Z,65.20
2017-07-28T20:41:36.731Z,65.10
2017-07-28T20:44:11.507Z,65.10
2017-07-28T20:46:49.532Z,65.30
2017-07-28T20:49:24.364Z,65.30
2017-07-28T20:51:59.673Z,65.40
2017-07-28T20:54:34.468Z,65.30
2017-07-28T20:57:09.392Z,65.40
2017-07-28T20:59:47.723Z,65.10
2017-07-28T21:02:22.655Z,66.10
2017-07-28T21:04:57.484Z,66.80
2017-07-28T21:07:33.386Z,66.60
2017-07-28T21:10:08.360Z,66.80
2017-07-28T21:12:43.284Z,66.40
2017-07-28T21:15:18.254Z,66.50
2017-07-28T21:17:53.138Z,66.20
2017-07-28T21:20:28.973Z,65.70
2017-07-28T21:23:03.797Z,65.50
2017-07-28T21:25:40.793Z,65.80
2017-07-28T21:28:15.584Z,66.30
2017-07-28T21:30:50.380Z,66.50
2017-07-28T21:33:36.991Z,66.70
2017-07-28T21:36:14.935Z,66.60
2017-07-28T21:38:49.867Z,66.40
2017-07-28T21:41:24.644Z,66.60
2017-07-28T21:44:10.830Z,67.00
2017-07-28T21:46:45.629Z,66.60
2017-07-28T21:49:25.768Z,66.60
2017-07-28T21:52:00.733Z,66.70
2017-07-28T21:54:36.495Z,66.70
2017-07-28T21:57:15.907Z,66.80
2017-07-28T21:59:50.847Z,66.90
2017-07-28T22:02:29.747Z,66.90
2017-07-28T22:05:19.562Z,67.00
2017-07-28T22:07:54.486Z,67.20
2017-07-28T22:10:29.400Z,67.00
2017-07-28T22:13:04.354Z,67.20
2017-07-28T22:15:39.137Z,67.50
2017-07-28T22:18:14.081Z,67.60
2017-07-28T22:20:48.991Z,67.20
2017-07-28T22:23:23.996Z,67.00
2017-07-28T22:26:12.720Z,67.30
2017-07-28T22:28:47.683Z,67.80
2017-07-28T22:31:29.596Z,67.80
2017-07-28T22:34:06.247Z,67.70
2017-07-28T22:36:45.692Z,67.90
2017-07-28T22:39:20.480Z,68.20
2017-07-28T22:41:55.400Z,68.50
2017-07-28T22:44:30.360Z,68.50
2017-07-28T22:47:05.138Z,68.10
2017-07-28T22:49:40.089Z,67.70
2017-07-28T22:52:14.867Z,67.50
2017-07-28T22:54:49.780Z,67.20
2017-07-28T22:57:24.823Z,67.30
2017-07-28T23:00:00.645Z,67.30
2017-07-28T23:02:35.536Z,67.10
2017-07-28T23:05:10.355Z,66.70
2017-07-28T23:07:51.492Z,66.60
2017-07-28T23:10:26.288Z,66.90
2017-07-28T23:13:02.565Z,67.10
2017-07-28T23:15:37.362Z,67.10
2017-07-28T23:18:12.121Z,67.20
2017-07-28T23:20:47.560Z,66.90
2017-07-28T23:23:22.316Z,67.00
2017-07-28T23:25:57.228Z,66.90
2017-07-28T23:28:33.079Z,66.50
2017-07-28T23:31:08.020Z,66.60
2017-07-28T23:33:42.935Z,67.00
2017-07-28T23:36:17.716Z,67.10
2017-07-28T23:38:55.013Z,67.00
2017-07-28T23:41:29.920Z,66.90
2017-07-28T23:44:04.707Z,66.90
2017-07-28T23:46:39.625Z,67.30
2017-07-28T23:49:14.536Z,67.30
2017-07-28T23:51:49.448Z,67.20
2017-07-28T23:54:24.231Z,67.10
2017-07-28T23:56:59.343Z,66.90
2017-07-28T23:59:34.236Z,66.60
